Time;durP1;ratioP1;P1;durP2;ratioP2;P2;SDS_P1;SDS_P2;PMS_P1;PMS_P2;Temp;Humidity;BMP_temperature;BMP_pressure;BME280_temperature;BME280_humidity;BME280_pressure;Samples;Min_cycle;Max_cycle;Signal;HPM_P1;HPM_P2
2023/01/02 00:01:51;;;;;;;54.35;16.23;;;10.60;99.90;;;;;;5072197;28;20549;-76
2023/01/02 00:04:16;;;;;;;50.83;16.45;;;10.60;99.90;;;;;;5089001;28;20044;-75
2023/01/02 00:06:42;;;;;;;56.58;15.98;;;10.60;99.90;;;;;;5073912;28;20354;-75
2023/01/02 00:09:08;;;;;;;56.85;16.98;;;10.60;99.90;;;;;;5073003;28;20341;-75
2023/01/02 00:11:34;;;;;;;61.42;18.67;;;10.60;99.90;;;;;;5071533;28;20493;-75
2023/01/02 00:14:00;;;;;;;68.60;19.05;;;10.70;99.90;;;;;;5071797;28;20080;-76
2023/01/02 00:16:25;;;;;;;64.80;20.13;;;10.70;99.90;;;;;;5073101;28;20075;-76
2023/01/02 00:18:51;;;;;;;77.45;22.17;;;10.70;99.90;;;;;;5072984;28;20041;-76
2023/01/02 00:21:17;;;;;;;79.45;23.92;;;10.70;99.90;;;;;;5071943;28;20079;-76
2023/01/02 00:23:43;;;;;;;83.03;23.80;;;10.70;99.90;;;;;;5073233;28;20465;-76
2023/01/02 00:26:09;;;;;;;78.07;23.60;;;10.60;99.90;;;;;;5058516;28;20049;-76
2023/01/02 00:28:36;;;;;;;79.60;23.92;;;10.70;99.90;;;;;;5077206;28;20044;-76
2023/01/02 00:31:11;;;;;;;79.68;25.77;;;10.70;99.90;;;;;;5075626;28;20087;-75
2023/01/02 00:33:37;;;;;;;85.13;24.00;;;10.70;99.90;;;;;;5076909;28;20052;-75
2023/01/02 00:36:08;;;;;;;77.25;21.42;;;10.70;99.90;;;;;;5075714;28;20079;-76
2023/01/02 00:38:33;;;;;;;72.55;23.13;;;10.70;99.90;;;;;;5077233;28;20051;-76
2023/01/02 00:40:59;;;;;;;77.50;23.20;;;10.70;99.90;;;;;;5077831;28;20380;-75
2023/01/02 00:43:26;;;;;;;74.63;21.48;;;10.70;99.90;;;;;;5059779;28;20036;-76
2023/01/02 00:45:52;;;;;;;75.28;22.50;;;10.70;99.90;;;;;;5075345;28;20045;-76
2023/01/02 00:48:17;;;;;;;62.45;21.33;;;10.80;99.90;;;;;;5075366;28;20055;-77
2023/01/02 00:50:44;;;;;;;76.57;20.45;;;10.80;99.90;;;;;;5075496;28;20094;-76
2023/01/02 00:53:10;;;;;;;64.88;19.98;;;10.80;99.90;;;;;;5075261;28;20127;-75
2023/01/02 00:55:35;;;;;;;54.45;18.10;;;10.80;99.90;;;;;;5074783;28;20473;-75
2023/01/02 00:58:01;;;;;;;56.72;18.05;;;10.80;99.90;;;;;;5074942;28;20508;-75
2023/01/02 01:00:27;;;;;;;64.13;18.90;;;10.80;99.90;;;;;;5075376;28;20084;-76
2023/01/02 01:02:57;;;;;;;60.08;19.42;;;10.90;99.90;;;;;;5058656;28;20523;-77
2023/01/02 01:05:24;;;;;;;62.42;18.33;;;10.90;99.90;;;;;;5058495;28;20048;-77
2023/01/02 01:07:50;;;;;;;66.22;18.48;;;10.90;99.90;;;;;;5075442;28;20477;-77
2023/01/02 01:10:16;;;;;;;50.70;15.85;;;10.90;99.90;;;;;;5058659;28;20048;-77
2023/01/02 01:12:42;;;;;;;63.28;17.77;;;10.90;99.90;;;;;;5076371;28;20102;-75
2023/01/02 01:15:08;;;;;;;63.88;18.13;;;10.90;99.90;;;;;;5075858;28;20049;-75
2023/01/02 01:17:33;;;;;;;62.88;16.67;;;10.90;99.90;;;;;;5075726;28;20089;-75
2023/01/02 01:19:59;;;;;;;54.33;16.92;;;10.90;99.90;;;;;;5059087;28;20488;-76
2023/01/02 01:22:25;;;;;;;58.95;15.48;;;10.90;99.90;;;;;;5057899;28;20094;-76
2023/01/02 01:24:51;;;;;;;60.92;17.27;;;10.90;99.90;;;;;;5074689;28;20055;-75
2023/01/02 01:27:16;;;;;;;62.80;16.75;;;10.90;99.90;;;;;;5075370;28;20058;-75
2023/01/02 01:29:42;;;;;;;49.67;15.10;;;10.90;99.90;;;;;;5058238;28;20422;-75
2023/01/02 01:32:08;;;;;;;63.38;15.40;;;10.90;99.90;;;;;;5074782;28;20072;-75
2023/01/02 01:34:33;;;;;;;53.63;15.77;;;10.80;99.90;;;;;;5074560;28;20488;-77
2023/01/02 01:36:59;;;;;;;55.63;15.50;;;10.90;99.90;;;;;;5058083;28;20040;-75
2023/01/02 01:39:25;;;;;;;52.85;14.43;;;10.90;99.90;;;;;;5076504;28;20422;-76
2023/01/02 01:41:51;;;;;;;56.42;13.77;;;10.90;99.90;;;;;;5074497;28;20044;-77
2023/01/02 01:44:41;;;;;;;48.25;12.63;;;10.90;99.90;;;;;;5075553;28;20090;-77
2023/01/02 01:47:28;;;;;;;46.35;14.20;;;10.90;99.90;;;;;;5057702;28;20040;-75
2023/01/02 01:50:21;;;;;;;49.05;14.18;;;10.90;99.90;;;;;;5075601;28;20056;-77
2023/01/02 01:52:51;;;;;;;57.17;16.58;;;10.90;99.90;;;;;;5075301;28;20090;-77
2023/01/02 01:55:47;;;;;;;48.80;14.55;;;10.80;99.90;;;;;;5057072;28;20497;-75
2023/01/02 01:58:21;;;;;;;55.97;14.95;;;10.80;99.90;;;;;;5073928;28;20084;-75
2023/01/02 02:00:50;;;;;;;49.97;14.77;;;10.90;99.90;;;;;;5107914;28;20040;-76
2023/01/02 02:03:20;;;;;;;54.85;15.02;;;10.90;99.90;;;;;;5076018;28;20392;-81
2023/01/02 02:05:47;;;;;;;50.10;14.13;;;10.90;99.90;;;;;;5075950;28;20048;-81
2023/01/02 02:08:18;;;;;;;55.20;14.18;;;10.90;99.90;;;;;;5075465;28;20517;-79
2023/01/02 02:10:44;;;;;;;55.10;15.70;;;10.90;99.90;;;;;;5075070;28;20048;-82
2023/01/02 02:13:10;;;;;;;60.10;14.50;;;10.90;99.90;;;;;;5074046;28;20048;-75
2023/01/02 02:15:55;;;;;;;51.00;13.95;;;10.90;99.90;;;;;;5075252;28;20405;-81
2023/01/02 02:18:45;;;;;;;47.97;14.13;;;10.90;99.90;;;;;;5075829;28;20423;-81
2023/01/02 02:21:29;;;;;;;53.20;13.77;;;10.90;99.90;;;;;;5077760;28;20044;-75
2023/01/02 02:24:04;;;;;;;54.38;14.75;;;10.90;99.90;;;;;;5076945;28;20045;-82
2023/01/02 02:26:48;;;;;;;45.33;13.75;;;10.90;99.90;;;;;;5075094;28;20457;-81
2023/01/02 02:29:42;;;;;;;49.38;13.32;;;10.90;99.90;;;;;;5074663;28;20048;-80
2023/01/02 02:32:31;;;;;;;58.20;13.32;;;11.00;99.90;;;;;;5075053;28;20045;-81
2023/01/02 02:35:18;;;;;;;54.75;14.75;;;11.00;99.90;;;;;;5075644;28;20098;-80
2023/01/02 02:37:52;;;;;;;43.08;13.20;;;11.00;99.90;;;;;;5075952;28;20373;-83
2023/01/02 02:40:41;;;;;;;46.33;13.27;;;11.00;99.90;;;;;;5074993;28;20044;-81
2023/01/02 02:43:15;;;;;;;41.30;11.93;;;11.00;99.90;;;;;;5074300;28;20044;-86
2023/01/02 02:46:11;;;;;;;50.25;12.88;;;11.00;99.90;;;;;;5076342;28;20127;-82
2023/01/02 02:48:39;;;;;;;38.67;12.15;;;11.00;99.90;;;;;;5074128;28;20053;-80
2023/01/02 02:51:32;;;;;;;49.25;13.13;;;11.00;99.90;;;;;;5075727;28;20059;-83
2023/01/02 02:54:07;;;;;;;48.13;13.52;;;11.00;99.90;;;;;;5066485;28;20070;-82
2023/01/02 02:56:34;;;;;;;44.78;12.95;;;11.00;99.90;;;;;;5074428;28;20088;-82
2023/01/02 02:59:01;;;;;;;52.88;12.77;;;11.10;99.90;;;;;;5074505;28;20420;-82
2023/01/02 03:01:28;;;;;;;46.97;12.90;;;11.10;99.90;;;;;;5075089;28;20056;-82
2023/01/02 03:03:54;;;;;;;;;;;11.10;99.90;;;;;;5075000;28;20121;-83
2023/01/02 03:06:32;;;;;;;48.33;12.80;;;11.10;99.90;;;;;;5058259;28;19967;-82
2023/01/02 03:09:34;;;;;;;49.58;13.25;;;11.00;99.90;;;;;;5076555;28;20136;-83
2023/01/02 03:12:34;;;;;;;46.53;13.10;;;11.00;99.90;;;;;;5074303;28;20078;-83
2023/01/02 03:15:14;;;;;;;47.90;12.82;;;11.00;99.90;;;;;;5075049;28;20139;-81
2023/01/02 03:18:03;;;;;;;45.50;12.10;;;11.00;99.90;;;;;;5076314;28;20534;-82
2023/01/02 03:20:36;;;;;;;46.55;12.43;;;11.10;99.90;;;;;;5072907;28;20093;-81
2023/01/02 03:23:06;;;;;;;56.63;13.25;;;11.10;99.90;;;;;;5072937;28;20484;-84
2023/01/02 03:25:36;;;;;;;40.67;12.80;;;11.00;99.90;;;;;;5074375;28;20055;-85
2023/01/02 03:28:06;;;;;;;46.63;13.45;;;11.10;99.90;;;;;;5072778;28;20040;-83
2023/01/02 03:30:34;;;;;;;50.53;13.25;;;11.10;99.90;;;;;;5072896;28;20052;-86
2023/01/02 03:33:21;;;;;;;47.10;12.05;;;11.10;99.90;;;;;;5074104;28;20054;-85
2023/01/02 03:35:54;;;;;;;48.28;12.77;;;11.10;99.90;;;;;;5074637;28;20052;-82
2023/01/02 03:38:27;;;;;;;45.25;12.85;;;11.10;99.90;;;;;;5074024;28;20047;-84
2023/01/02 03:41:08;;;;;;;49.88;13.02;;;11.10;99.90;;;;;;5073886;28;20059;-84
2023/01/02 03:43:36;;;;;;;53.92;13.25;;;11.10;99.90;;;;;;5073065;28;20048;-84
2023/01/02 03:46:32;;;;;;;40.63;12.35;;;11.10;99.90;;;;;;5055999;28;20097;-85
2023/01/02 03:49:18;;;;;;;40.78;12.57;;;11.10;99.90;;;;;;5068127;28;20056;-84
2023/01/02 03:51:44;;;;;;;45.90;12.32;;;11.10;99.90;;;;;;5072603;28;20044;-82
2023/01/02 03:54:10;;;;;;;55.03;12.70;;;11.10;99.90;;;;;;5071939;28;20049;-83
2023/01/02 03:56:57;;;;;;;57.20;13.10;;;11.10;99.90;;;;;;5073524;28;20060;-84
2023/01/02 03:59:23;;;;;;;53.60;12.77;;;11.10;99.90;;;;;;5074137;28;20060;-85
2023/01/02 04:02:08;;;;;;;48.42;12.00;;;11.20;99.90;;;;;;5077627;28;20045;-81
2023/01/02 04:04:48;;;;;;;42.50;12.05;;;11.20;99.90;;;;;;5076646;28;20059;-83
2023/01/02 04:07:25;;;;;;;48.65;12.40;;;11.20;99.90;;;;;;5078580;28;20127;-84
2023/01/02 04:09:51;;;;;;;46.35;14.40;;;11.20;99.90;;;;;;5060928;28;20052;-84
2023/01/02 04:12:19;;;;;;;47.83;12.93;;;11.30;99.90;;;;;;5077486;28;20043;-84
2023/01/02 04:15:05;;;;;;;43.05;13.50;;;11.20;99.90;;;;;;5076177;28;20501;-83
2023/01/02 04:17:37;;;;;;;44.08;11.48;;;11.30;99.90;;;;;;5077718;28;20045;-84
2023/01/02 04:20:12;;;;;;;45.33;12.35;;;11.30;99.90;;;;;;5077640;28;20110;-82
2023/01/02 04:23:03;;;;;;;48.53;12.50;;;11.20;99.90;;;;;;5079815;28;20423;-83
2023/01/02 04:25:40;;;;;;;40.78;12.38;;;11.30;99.90;;;;;;5091298;28;20036;-74
2023/01/02 04:28:29;;;;;;;37.05;11.00;;;11.30;99.90;;;;;;5091131;28;20056;-83
2023/01/02 04:31:18;;;;;;;42.70;12.40;;;11.30;99.90;;;;;;5084664;28;20060;-82
2023/01/02 04:33:50;;;;;;;47.50;11.05;;;11.40;99.90;;;;;;5078754;28;20051;-87
2023/01/02 04:36:16;;;;;;;50.05;12.70;;;11.40;99.90;;;;;;5080494;28;20056;-82
2023/01/02 04:38:43;;;;;;;43.28;11.13;;;11.40;99.90;;;;;;5079642;28;20485;-80
2023/01/02 04:41:11;;;;;;;46.75;12.52;;;11.40;99.90;;;;;;5079592;28;20044;-84
2023/01/02 04:43:37;;;;;;;43.50;12.05;;;11.50;99.90;;;;;;5077679;28;20056;-84
2023/01/02 04:46:02;;;;;;;46.28;11.77;;;11.50;99.90;;;;;;5077874;28;20510;-81
2023/01/02 04:48:28;;;;;;;40.78;11.13;;;11.60;99.90;;;;;;5078510;28;20051;-86
2023/01/02 04:50:54;;;;;;;39.05;10.68;;;11.50;99.90;;;;;;5077562;28;20499;-86
2023/01/02 04:53:20;;;;;;;42.35;10.63;;;11.60;99.90;;;;;;5077474;28;20045;-87
2023/01/02 04:55:46;;;;;;;44.80;11.50;;;11.60;99.90;;;;;;5093078;28;20445;-87
2023/01/02 04:58:12;;;;;;;37.72;9.32;;;11.60;99.90;;;;;;5077379;28;20051;-84
2023/01/02 05:00:37;;;;;;;33.08;9.50;;;11.70;99.90;;;;;;5059681;28;20056;-85
2023/01/02 05:03:03;;;;;;;37.85;9.70;;;11.70;99.90;;;;;;5076106;28;20095;-83
2023/01/02 05:05:30;;;;;;;43.08;10.70;;;11.70;99.90;;;;;;5077269;28;20044;-85
2023/01/02 05:07:59;;;;;;;32.95;10.23;;;11.70;99.90;;;;;;5076716;28;20056;-83
2023/01/02 05:10:25;;;;;;;33.70;9.93;;;11.70;99.90;;;;;;5077145;28;20481;-83
2023/01/02 05:12:50;;;;;;;34.85;9.88;;;11.70;99.90;;;;;;5078367;28;20071;-85
2023/01/02 05:15:16;;;;;;;34.47;9.93;;;11.70;99.90;;;;;;5078774;28;20052;-83
2023/01/02 05:17:42;;;;;;;36.97;10.25;;;11.70;99.90;;;;;;5075606;28;20131;-86
2023/01/02 05:20:11;;;;;;;32.95;10.40;;;11.70;99.90;;;;;;5075772;28;20538;-84
2023/01/02 05:25:24;;;;;;;43.15;10.15;;;11.60;99.90;;;;;;5077266;28;20060;-87
2023/01/02 05:27:54;;;;;;;32.22;10.55;;;11.70;99.90;;;;;;5076719;28;20381;-87
2023/01/02 05:30:21;;;;;;;31.90;9.57;;;11.70;99.90;;;;;;5076003;28;20369;-83
2023/01/02 05:32:47;;;;;;;37.47;10.02;;;11.70;99.90;;;;;;5058402;28;20044;-81
2023/01/02 05:35:12;;;;;;;37.90;11.10;;;11.70;99.90;;;;;;5076809;28;20131;-81
2023/01/02 05:37:38;;;;;;;37.40;10.52;;;11.70;99.90;;;;;;5075790;28;20175;-83
2023/01/02 05:40:04;;;;;;;33.80;10.10;;;11.70;99.90;;;;;;5075322;28;20519;-82
2023/01/02 05:42:30;;;;;;;37.97;11.07;;;11.70;99.90;;;;;;5076252;28;20036;-82
2023/01/02 05:44:56;;;;;;;36.03;9.85;;;11.70;99.90;;;;;;5059450;28;20178;-82
2023/01/02 05:47:22;;;;;;;35.90;10.10;;;11.70;99.90;;;;;;5041733;28;20485;-83
2023/01/02 05:49:47;;;;;;;42.95;10.18;;;11.70;99.90;;;;;;5075955;28;20109;-84
2023/01/02 05:52:13;;;;;;;40.38;11.02;;;11.80;99.90;;;;;;5075584;28;20083;-80
2023/01/02 05:54:39;;;;;;;41.45;11.05;;;11.80;99.90;;;;;;5075235;28;20102;-81
2023/01/02 05:57:05;;;;;;;29.98;9.25;;;11.80;99.90;;;;;;5075807;28;20060;-82
2023/01/02 05:59:31;;;;;;;34.05;10.55;;;11.80;99.90;;;;;;5108623;28;20052;-83
2023/01/02 06:01:57;;;;;;;35.40;9.43;;;11.80;99.90;;;;;;5075198;28;20049;-84
2023/01/02 06:04:23;;;;;;;31.67;9.60;;;11.80;99.90;;;;;;5075553;28;20041;-81
2023/01/02 06:06:48;;;;;;;29.17;9.68;;;11.80;99.90;;;;;;5073506;28;20087;-84
2023/01/02 06:09:15;;;;;;;33.80;10.23;;;11.80;99.90;;;;;;5057510;28;20133;-82
2023/01/02 06:11:42;;;;;;;31.88;9.05;;;11.80;99.90;;;;;;5074922;28;20048;-80
2023/01/02 06:14:09;;;;;;;34.30;10.15;;;11.80;99.90;;;;;;5075034;28;20052;-81
2023/01/02 06:16:38;;;;;;;;;;;11.80;99.90;;;;;;5075371;28;20056;-82
2023/01/02 06:19:05;;;;;;;32.78;8.80;;;11.80;99.90;;;;;;5108286;28;19920;-81
2023/01/02 06:21:31;;;;;;;36.70;9.32;;;11.80;99.90;;;;;;5057164;28;20055;-83
2023/01/02 06:23:57;;;;;;;37.75;9.20;;;11.80;99.90;;;;;;5078286;28;20052;-82
2023/01/02 06:26:25;;;;;;;34.90;9.63;;;11.80;99.90;;;;;;5074806;28;20053;-82
2023/01/02 06:28:54;;;;;;;32.92;9.68;;;11.80;99.90;;;;;;5074978;28;20287;-84
2023/01/02 06:31:22;;;;;;;32.75;9.68;;;11.80;99.90;;;;;;5073669;28;20041;-82
2023/01/02 06:33:52;;;;;;;35.50;9.13;;;11.80;99.90;;;;;;5074083;28;20060;-81
2023/01/02 06:36:18;;;;;;;29.00;9.93;;;11.80;99.90;;;;;;5073546;28;20051;-81
2023/01/02 06:38:44;;;;;;;37.90;10.27;;;11.80;99.90;;;;;;5074812;28;20131;-82
2023/01/02 06:41:11;;;;;;;35.72;9.32;;;11.80;99.90;;;;;;5074653;28;20507;-80
2023/01/02 06:43:42;;;;;;;34.72;10.32;;;11.80;99.90;;;;;;5074846;28;20044;-81
2023/01/02 06:46:09;;;;;;;37.60;9.98;;;11.80;99.90;;;;;;5075266;28;20075;-80
2023/01/02 06:48:34;;;;;;;39.45;9.88;;;11.70;99.90;;;;;;5074389;28;20127;-79
2023/01/02 06:51:07;;;;;;;32.63;9.57;;;11.70;99.90;;;;;;5074388;28;20123;-82
2023/01/02 06:53:34;;;;;;;40.33;9.90;;;11.70;99.90;;;;;;5075485;28;20094;-78
2023/01/02 06:56:00;;;;;;;47.45;10.65;;;11.70;99.90;;;;;;5075555;28;20052;-77
2023/01/02 06:58:29;;;;;;;44.40;11.73;;;11.70;99.90;;;;;;5074862;28;20051;-76
2023/01/02 07:01:01;;;;;;;42.78;9.65;;;11.70;99.90;;;;;;5073898;28;20084;-77
2023/01/02 07:03:27;;;;;;;28.73;8.02;;;11.70;99.90;;;;;;5075514;28;20044;-79
2023/01/02 07:05:53;;;;;;;17.80;6.85;;;11.70;99.90;;;;;;5073043;28;20052;-79
2023/01/02 07:08:18;;;;;;;26.83;8.73;;;11.70;99.90;;;;;;5074692;28;20137;-80
2023/01/02 07:10:44;;;;;;;20.45;7.20;;;11.70;99.90;;;;;;5074505;28;20051;-80
2023/01/02 07:13:09;;;;;;;9.88;3.60;;;11.50;99.90;;;;;;5074290;28;20147;-81
2023/01/02 07:15:35;;;;;;;8.27;2.33;;;11.20;99.90;;;;;;5075737;28;20056;-81
2023/01/02 07:18:01;;;;;;;10.20;3.55;;;11.00;99.90;;;;;;5073728;28;20048;-78
2023/01/02 07:20:27;;;;;;;10.65;3.45;;;10.80;99.90;;;;;;5073855;28;20051;-81
2023/01/02 07:22:53;;;;;;;10.98;3.50;;;10.60;99.90;;;;;;5072505;28;20048;-76
2023/01/02 07:25:20;;;;;;;11.35;3.70;;;10.40;99.90;;;;;;5073925;28;20170;-81
2023/01/02 07:27:46;;;;;;;11.40;3.83;;;10.40;99.90;;;;;;5074313;28;20062;-81
2023/01/02 07:30:13;;;;;;;11.10;4.20;;;10.30;99.90;;;;;;5074282;28;20123;-79
2023/01/02 07:32:38;;;;;;;16.45;5.30;;;10.20;99.90;;;;;;5073868;28;20045;-82
2023/01/02 07:35:05;;;;;;;13.07;5.30;;;10.20;99.90;;;;;;5074104;28;20075;-83
2023/01/02 07:37:31;;;;;;;15.25;5.28;;;10.10;99.90;;;;;;5073856;28;20087;-81
2023/01/02 07:39:57;;;;;;;15.75;5.75;;;10.10;99.90;;;;;;5074207;28;20402;-83
2023/01/02 07:42:22;;;;;;;18.92;6.30;;;10.00;99.90;;;;;;5074503;28;20037;-81
2023/01/02 07:44:48;;;;;;;16.98;6.20;;;10.00;99.90;;;;;;5072780;28;20496;-80
2023/01/02 07:47:14;;;;;;;22.55;7.50;;;10.00;99.90;;;;;;5072513;28;20058;-84
2023/01/02 07:49:39;;;;;;;22.88;7.18;;;9.90;99.90;;;;;;5072654;28;20044;-81
2023/01/02 07:52:09;;;;;;;23.20;7.18;;;9.90;99.90;;;;;;5055833;28;20384;-81
2023/01/02 07:54:35;;;;;;;23.45;7.95;;;9.90;99.90;;;;;;5072154;28;20084;-80
2023/01/02 07:57:00;;;;;;;21.58;7.03;;;9.80;99.90;;;;;;5073628;28;20141;-79
2023/01/02 07:59:27;;;;;;;21.13;7.75;;;9.80;99.90;;;;;;5073865;28;20102;-83
2023/01/02 08:01:53;;;;;;;25.75;7.22;;;9.70;99.90;;;;;;5073672;28;20048;-84
2023/01/02 08:04:21;;;;;;;23.35;7.70;;;9.60;99.90;;;;;;5072079;28;20052;-81
2023/01/02 08:06:47;;;;;;;23.08;7.97;;;9.50;99.90;;;;;;5073640;28;20110;-84
2023/01/02 08:09:13;;;;;;;24.75;7.32;;;9.50;99.90;;;;;;5073888;28;20052;-81
2023/01/02 08:11:38;;;;;;;28.45;7.22;;;9.50;99.90;;;;;;5073210;28;20381;-82
2023/01/02 08:14:04;;;;;;;28.83;7.90;;;9.40;99.90;;;;;;5073702;28;20050;-83
2023/01/02 08:16:30;;;;;;;25.77;7.15;;;9.40;99.90;;;;;;5073503;28;20104;-84
2023/01/02 08:18:55;;;;;;;25.67;6.35;;;9.30;99.90;;;;;;5073163;28;20059;-84
2023/01/02 08:21:23;;;;;;;23.13;7.15;;;9.30;99.90;;;;;;5073568;28;20477;-82
2023/01/02 08:23:48;;;;;;;22.30;5.20;;;9.20;99.90;;;;;;5072159;28;20473;-85
2023/01/02 08:26:14;;;;;;;21.60;4.97;;;9.10;99.90;;;;;;5073162;28;20173;-86
2023/01/02 08:28:41;;;;;;;16.83;3.95;;;9.10;99.90;;;;;;5073937;28;20048;-82
2023/01/02 08:31:13;;;;;;;18.50;3.60;;;9.00;99.90;;;;;;5056661;28;20131;-81
2023/01/02 08:33:39;;;;;;;19.45;4.03;;;9.00;99.90;;;;;;5074188;28;20075;-87
2023/01/02 08:36:05;;;;;;;17.25;3.17;;;8.90;99.90;;;;;;5073765;28;20131;-84
2023/01/02 08:38:31;;;;;;;17.23;3.53;;;8.90;99.90;;;;;;5056150;28;20118;-83
2023/01/02 08:40:57;;;;;;;12.48;3.08;;;8.90;99.90;;;;;;5076515;28;20152;-83
2023/01/02 08:43:24;;;;;;;13.30;2.20;;;8.90;99.90;;;;;;5073148;28;20052;-82
2023/01/02 08:45:50;;;;;;;13.75;3.00;;;8.90;99.90;;;;;;5073370;28;20041;-84
2023/01/02 08:48:16;;;;;;;15.60;2.38;;;8.80;99.90;;;;;;5075561;28;20062;-83
2023/01/02 08:50:41;;;;;;;11.15;2.15;;;8.80;99.90;;;;;;5075712;28;20123;-84
2023/01/02 08:53:07;;;;;;;15.43;2.50;;;8.80;99.90;;;;;;5075357;28;20434;-86
2023/01/02 08:55:33;;;;;;;15.07;2.03;;;8.70;99.90;;;;;;5076184;28;20052;-85
2023/01/02 08:57:58;;;;;;;12.95;2.08;;;8.70;99.90;;;;;;5075910;28;20074;-82
2023/01/02 09:00:24;;;;;;;13.00;2.05;;;8.70;99.90;;;;;;5059012;28;20327;-82
2023/01/02 09:02:50;;;;;;;15.30;2.53;;;8.70;99.90;;;;;;5074843;28;20048;-83
2023/01/02 09:05:16;;;;;;;12.43;2.38;;;8.70;99.90;;;;;;5076390;28;20045;-84
2023/01/02 09:07:42;;;;;;;11.85;1.83;;;8.70;99.90;;;;;;5075124;28;20138;-83
2023/01/02 09:10:09;;;;;;;11.38;1.48;;;8.70;99.90;;;;;;5058888;28;20388;-84
2023/01/02 09:12:35;;;;;;;6.80;1.60;;;8.70;99.90;;;;;;5078445;28;20040;-86
2023/01/02 09:15:01;;;;;;;11.47;1.80;;;8.70;99.90;;;;;;5077137;28;20055;-82
2023/01/02 09:17:27;;;;;;;9.32;1.20;;;8.60;99.90;;;;;;5075883;28;20484;-82
2023/01/02 09:19:53;;;;;;;9.70;1.52;;;8.70;99.90;;;;;;5058559;28;20044;-84
2023/01/02 09:22:19;;;;;;;9.73;2.22;;;8.70;99.90;;;;;;5058339;28;20039;-82
2023/01/02 09:24:45;;;;;;;9.48;1.60;;;8.70;99.90;;;;;;5076671;28;20083;-82
2023/01/02 09:27:11;;;;;;;6.30;1.20;;;8.70;99.90;;;;;;5076722;28;20052;-82
2023/01/02 09:29:36;;;;;;;10.40;2.15;;;8.80;99.90;;;;;;5076517;28;20041;-83
2023/01/02 09:32:03;;;;;;;12.23;2.20;;;8.80;99.90;;;;;;5077040;28;20373;-83
2023/01/02 09:34:29;;;;;;;9.13;1.67;;;8.90;99.90;;;;;;5076803;28;20106;-85
2023/01/02 09:36:54;;;;;;;12.15;1.60;;;8.90;99.90;;;;;;5075581;28;20461;-83
2023/01/02 09:39:20;;;;;;;9.68;1.60;;;8.90;99.90;;;;;;5058527;28;20079;-84
2023/01/02 09:41:52;;;;;;;11.18;1.60;;;8.90;99.90;;;;;;5075834;28;20135;-82
2023/01/02 09:44:39;;;;;;;10.20;1.77;;;8.90;99.90;;;;;;5075701;28;20058;-83
2023/01/02 09:47:10;;;;;;;9.32;2.00;;;8.90;99.90;;;;;;5075919;28;20054;-84
2023/01/02 09:49:51;;;;;;;11.90;2.47;;;8.90;99.90;;;;;;5076923;28;20051;-82
2023/01/02 09:52:19;;;;;;;12.13;1.67;;;8.90;99.90;;;;;;5075482;28;20039;-83
2023/01/02 09:54:45;;;;;;;9.18;1.90;;;9.00;99.90;;;;;;5075140;28;20110;-84
2023/01/02 09:57:26;;;;;;;10.55;1.88;;;9.00;99.90;;;;;;5075040;28;20489;-82
2023/01/02 10:00:18;;;;;;;10.98;2.13;;;8.90;99.90;;;;;;5077593;28;20045;-83
2023/01/02 10:03:18;;;;;;;11.68;2.40;;;9.00;99.90;;;;;;5075239;28;20078;-83
2023/01/02 10:05:57;;;;;;;10.50;1.75;;;9.00;99.90;;;;;;5076167;28;20048;-84
2023/01/02 10:08:41;;;;;;;10.40;1.75;;;9.10;99.90;;;;;;5076609;28;20418;-83
2023/01/02 10:11:21;;;;;;;8.68;1.92;;;9.10;99.90;;;;;;5076693;28;20044;-83
2023/01/02 10:14:01;;;;;;;9.50;2.25;;;9.20;99.90;;;;;;5075904;28;20132;-82
2023/01/02 10:16:36;;;;;;;11.88;2.13;;;9.20;99.90;;;;;;5074835;28;20062;-82
2023/01/02 10:19:13;;;;;;;10.27;1.67;;;9.20;99.90;;;;;;5075715;28;20048;-85
2023/01/02 10:21:40;;;;;;;12.27;1.50;;;9.40;99.90;;;;;;5076328;28;20085;-81
2023/01/02 10:24:12;;;;;;;;;;;9.40;99.90;;;;;;5076319;28;20493;-81
2023/01/02 10:26:42;;;;;;;12.30;1.55;;;9.40;99.90;;;;;;5075984;28;19920;-82
2023/01/02 10:29:28;;;;;;;6.10;1.20;;;9.40;99.90;;;;;;5074967;28;20166;-83
2023/01/02 10:31:59;;;;;;;8.10;1.40;;;9.40;99.90;;;;;;5074129;28;20496;-83
2023/01/02 10:34:59;;;;;;;7.65;1.55;;;9.40;99.90;;;;;;5075026;28;20090;-81
2023/01/02 10:37:26;;;;;;;9.25;2.03;;;9.40;99.90;;;;;;5073508;28;20174;-80
2023/01/02 10:39:52;;;;;;;;;;;9.40;99.90;;;;;;5076235;28;20048;-84
2023/01/02 10:42:18;;;;;;;10.60;2.20;;;9.40;99.90;;;;;;5079333;28;20272;-83
2023/01/02 10:44:45;;;;;;;11.85;2.30;;;9.30;99.90;;;;;;5077297;28;20604;-84
2023/01/02 10:47:22;;;;;;;8.18;1.80;;;9.20;99.90;;;;;;5079506;28;20059;-85
2023/01/02 10:49:51;;;;;;;9.88;2.40;;;9.30;99.90;;;;;;5078978;28;20141;-83
2023/01/02 10:52:31;;;;;;;11.93;2.22;;;9.30;99.90;;;;;;5076820;28;20174;-81
2023/01/02 10:54:58;;;;;;;10.27;2.00;;;9.40;99.90;;;;;;5076486;28;20518;-83
2023/01/02 10:57:43;;;;;;;12.27;2.73;;;9.40;99.90;;;;;;5074423;28;20048;-79
2023/01/02 11:00:26;;;;;;;13.75;3.10;;;9.40;99.90;;;;;;5074934;28;20047;-77
2023/01/02 11:02:55;;;;;;;12.55;3.95;;;9.50;99.90;;;;;;5074916;28;20056;-81
2023/01/02 11:05:24;;;;;;;12.88;3.42;;;9.50;99.90;;;;;;5077692;28;20303;-79
2023/01/02 11:07:51;;;;;;;15.65;4.53;;;9.60;99.90;;;;;;5076682;28;20044;-81
2023/01/02 11:10:25;;;;;;;14.65;3.58;;;9.60;99.90;;;;;;5076215;28;20053;-82
2023/01/02 11:12:51;;;;;;;16.15;4.22;;;9.70;99.90;;;;;;5057455;28;20082;-81
2023/01/02 11:15:24;;;;;;;14.38;3.72;;;9.60;99.90;;;;;;5075040;28;20044;-81
2023/01/02 11:17:50;;;;;;;14.10;4.72;;;9.70;99.90;;;;;;5074461;28;20040;-78
2023/01/02 11:20:36;;;;;;;19.63;4.25;;;9.60;99.90;;;;;;5056355;28;20056;-79
2023/01/02 11:23:03;;;;;;;19.10;5.50;;;9.60;99.90;;;;;;5073261;28;20052;-80
2023/01/02 11:25:35;;;;;;;;;;;9.60;99.90;;;;;;5074806;28;20055;-81
2023/01/02 11:28:02;;;;;;;15.88;5.38;;;9.60;99.90;;;;;;5074392;28;19920;-82
2023/01/02 11:30:45;;;;;;;27.70;7.53;;;9.60;99.90;;;;;;5076494;28;20044;-78
2023/01/02 11:33:23;;;;;;;20.63;7.95;;;9.50;99.90;;;;;;5060097;28;20072;-81
2023/01/02 11:36:03;;;;;;;25.65;8.55;;;9.60;99.90;;;;;;5074616;28;20084;-80
2023/01/02 11:38:52;;;;;;;22.33;7.30;;;9.50;99.90;;;;;;5075730;28;20091;-86
2023/01/02 11:44:53;;;;;;;24.67;7.22;;;9.50;99.90;;;;;;5074357;28;20090;-79
2023/01/02 11:47:33;;;;;;;23.13;7.63;;;9.50;99.90;;;;;;5073084;28;20480;-81
2023/01/02 11:49:59;;;;;;;22.40;7.47;;;9.50;99.90;;;;;;5074404;28;20041;-80
2023/01/02 11:52:45;;;;;;;19.38;6.68;;;9.50;99.90;;;;;;5073323;28;20048;-80
2023/01/02 11:55:38;;;;;;;18.73;5.28;;;9.50;99.90;;;;;;5073923;28;20052;-81
2023/01/02 11:58:39;;;;;;;17.08;4.95;;;9.60;99.90;;;;;;5072662;28;20044;-81
2023/01/02 12:01:38;;;;;;;13.57;3.95;;;9.60;99.90;;;;;;5070393;28;20057;-81
2023/01/02 12:04:04;;;;;;;14.23;3.53;;;9.60;99.90;;;;;;5072868;28;20048;-81
2023/01/02 12:06:36;;;;;;;12.65;3.40;;;9.70;99.90;;;;;;5072335;28;20041;-80
2023/01/02 12:09:08;;;;;;;14.60;3.13;;;9.70;99.90;;;;;;5073056;28;20036;-82
2023/01/02 12:11:58;;;;;;;17.33;2.95;;;9.80;99.90;;;;;;5072917;28;20036;-80
2023/01/02 12:14:57;;;;;;;16.45;2.50;;;9.80;99.90;;;;;;5074244;28;20048;-81
2023/01/02 12:17:40;;;;;;;18.58;2.00;;;9.70;99.90;;;;;;5061394;28;20061;-79
2023/01/02 12:20:43;;;;;;;12.48;1.73;;;9.70;99.90;;;;;;5074126;28;20048;-76
2023/01/02 12:23:18;;;;;;;16.85;2.50;;;9.60;99.90;;;;;;5078034;28;20036;-81
2023/01/02 12:25:49;;;;;;;13.23;1.73;;;9.60;99.90;;;;;;5079707;28;20392;-82
2023/01/02 12:28:47;;;;;;;17.77;2.25;;;9.60;99.90;;;;;;5078775;28;20059;-79
2023/01/02 12:31:28;;;;;;;11.32;1.90;;;9.60;99.90;;;;;;5043099;28;20052;-82
2023/01/02 12:34:35;;;;;;;8.30;1.95;;;9.60;99.90;;;;;;5075869;28;20087;-81
2023/01/02 12:37:50;;;;;;;11.60;1.85;;;9.60;99.90;;;;;;5069364;28;20067;-81
2023/01/02 12:40:34;;;;;;;14.15;2.15;;;9.60;99.90;;;;;;5035446;28;20060;-81
2023/01/02 12:43:24;;;;;;;20.85;3.35;;;9.50;99.90;;;;;;5076689;28;20037;-80
2023/01/02 12:46:08;;;;;;;14.10;2.40;;;9.60;99.90;;;;;;5075983;28;20098;-81
2023/01/02 12:48:39;;;;;;;15.32;3.25;;;9.60;99.90;;;;;;5075582;28;20052;-80
2023/01/02 12:51:44;;;;;;;13.75;2.83;;;9.60;99.90;;;;;;5077152;28;20052;-80
2023/01/02 12:54:21;;;;;;;14.05;3.20;;;9.50;99.90;;;;;;5075322;28;20507;-81
2023/01/02 12:57:05;;;;;;;16.77;3.30;;;9.50;99.90;;;;;;5059566;28;20055;-80
2023/01/02 12:59:51;;;;;;;20.25;3.33;;;9.50;99.90;;;;;;5076576;28;20080;-80
2023/01/02 13:02:45;;;;;;;16.25;2.78;;;9.50;99.90;;;;;;5075276;28;20094;-82
2023/01/02 13:05:16;;;;;;;16.60;3.10;;;9.60;99.90;;;;;;5076311;28;20080;-82
2023/01/02 13:07:56;;;;;;;16.13;2.65;;;9.60;99.90;;;;;;5076899;28;20052;-82
2023/01/02 13:10:25;;;;;;;11.65;2.38;;;9.60;99.90;;;;;;5076374;28;20136;-80